createdAt,value
2023-01-29T00:00:00.791Z,58.80
2023-01-29T00:02:27.327Z,61.90
2023-01-29T00:04:58.735Z,64.30
2023-01-29T00:07:25.526Z,61.20
2023-01-29T00:09:52.192Z,55.30
2023-01-29T00:12:18.611Z,61.30
2023-01-29T00:14:45.144Z,51.20
2023-01-29T00:17:11.898Z,53.40
2023-01-29T00:19:38.689Z,57.50
2023-01-29T00:22:05.286Z,52.60
2023-01-29T00:24:31.831Z,51.50
2023-01-29T00:26:58.291Z,53.20
2023-01-29T00:29:24.780Z,54.00
2023-01-29T00:31:51.518Z,51.60
2023-01-29T00:34:18.287Z,53.00
2023-01-29T00:36:44.829Z,47.00
2023-01-29T00:39:11.371Z,51.60
2023-01-29T00:41:38.624Z,46.30
2023-01-29T00:44:06.656Z,54.80
2023-01-29T00:46:33.250Z,48.30
2023-01-29T00:49:00.932Z,45.70
2023-01-29T00:51:27.661Z,46.50
2023-01-29T00:53:54.134Z,43.30
2023-01-29T00:56:20.754Z,41.40
2023-01-29T00:58:47.187Z,44.70
2023-01-29T01:01:13.931Z,41.70
2023-01-29T01:03:40.465Z,38.20
2023-01-29T01:06:10.369Z,41.20
2023-01-29T01:08:37.228Z,42.30
2023-01-29T01:11:07.463Z,43.70
2023-01-29T01:13:35.535Z,45.80
2023-01-29T01:16:02.037Z,41.60
2023-01-29T01:18:31.592Z,39.90
2023-01-29T01:20:58.636Z,36.20
2023-01-29T01:23:25.805Z,39.50
2023-01-29T01:25:52.338Z,41.60
2023-01-29T01:28:18.876Z,42.80
2023-01-29T01:30:45.449Z,43.60
2023-01-29T01:33:12.060Z,39.40
2023-01-29T01:35:39.647Z,46.30
2023-01-29T01:38:06.264Z,48.60
2023-01-29T01:40:33.128Z,47.10
2023-01-29T01:43:00.844Z,47.90
2023-01-29T01:45:37.512Z,45.30
2023-01-29T01:48:12.827Z,48.30
2023-01-29T01:50:46.756Z,44.10
2023-01-29T01:53:20.725Z,45.10
2023-01-29T01:55:54.529Z,46.90
2023-01-29T01:58:33.627Z,45.30
2023-01-29T02:01:01.399Z,47.10
2023-01-29T02:03:31.380Z,44.90
2023-01-29T02:05:59.977Z,45.80
2023-01-29T02:08:37.920Z,44.30
2023-01-29T02:11:06.076Z,44.90
2023-01-29T02:13:32.587Z,41.50
2023-01-29T02:15:59.119Z,47.70
2023-01-29T02:18:25.907Z,43.50
2023-01-29T02:21:08.231Z,46.20
2023-01-29T02:23:56.625Z,45.60
2023-01-29T02:26:42.233Z,43.90
2023-01-29T02:29:23.211Z,46.30
2023-01-29T02:32:08.852Z,46.50
2023-01-29T02:34:53.367Z,43.40
2023-01-29T02:37:25.971Z,44.50
2023-01-29T02:40:05.126Z,41.80
2023-01-29T02:42:38.875Z,42.70
2023-01-29T02:45:22.636Z,39.60
2023-01-29T02:47:58.258Z,40.60
2023-01-29T02:50:36.742Z,43.10
2023-01-29T02:53:14.272Z,41.60
2023-01-29T02:56:13.474Z,39.10
2023-01-29T02:58:43.631Z,39.60
2023-01-29T03:01:17.195Z,37.10
2023-01-29T03:03:49.479Z,32.60
2023-01-29T03:06:42.073Z,34.60
2023-01-29T03:09:24.355Z,38.00
2023-01-29T03:11:54.605Z,35.30
2023-01-29T03:14:36.756Z,37.40
2023-01-29T03:17:09.432Z,35.60
2023-01-29T03:19:41.861Z,32.80
2023-01-29T03:22:11.722Z,30.90
2023-01-29T03:24:46.701Z,30.90
2023-01-29T03:27:16.820Z,31.40
2023-01-29T03:29:49.270Z,33.40
2023-01-29T03:32:18.826Z,33.60
2023-01-29T03:34:50.309Z,29.60
2023-01-29T03:39:50.895Z,35.70
2023-01-29T03:42:54.081Z,31.70
2023-01-29T03:45:31.371Z,30.60
2023-01-29T03:48:28.552Z,33.70
2023-01-29T03:51:19.829Z,30.50
2023-01-29T03:53:55.172Z,32.00
2023-01-29T03:56:30.801Z,29.40
2023-01-29T03:59:16.137Z,30.20
2023-01-29T04:01:51.245Z,29.70
2023-01-29T04:04:26.683Z,31.50
2023-01-29T04:06:57.513Z,32.00
2023-01-29T04:09:34.347Z,29.40
2023-01-29T04:12:14.371Z,29.20
2023-01-29T04:14:40.951Z,30.00
2023-01-29T04:17:16.546Z,33.30
2023-01-29T04:19:43.859Z,32.40
2023-01-29T04:22:34.215Z,35.70
2023-01-29T04:25:05.816Z,32.70
2023-01-29T04:30:35.764Z,33.00
2023-01-29T04:33:44.160Z,34.20
2023-01-29T04:36:21.451Z,33.90
2023-01-29T04:38:57.937Z,32.50
2023-01-29T04:41:36.063Z,30.90
2023-01-29T04:44:20.948Z,29.20
2023-01-29T04:46:47.353Z,29.60
2023-01-29T04:49:32.663Z,34.50
2023-01-29T04:52:17.523Z,33.60
2023-01-29T04:55:08.747Z,30.70
2023-01-29T04:57:52.678Z,46.50
2023-01-29T05:00:30.298Z,32.60
2023-01-29T05:02:57.286Z,37.60
2023-01-29T05:05:24.160Z,38.70
2023-01-29T05:07:51.115Z,35.70
2023-01-29T05:10:20.462Z,42.00
2023-01-29T05:12:52.860Z,44.50
2023-01-29T05:15:25.330Z,35.50
2023-01-29T05:17:52.565Z,39.50
2023-01-29T05:20:20.276Z,50.80
2023-01-29T05:22:47.898Z,33.80
2023-01-29T05:25:26.930Z,30.70
2023-01-29T05:27:54.519Z,33.10
2023-01-29T05:30:21.010Z,33.80
2023-01-29T05:32:47.474Z,31.40
2023-01-29T05:35:14.144Z,32.80
2023-01-29T05:37:40.659Z,29.10
2023-01-29T05:40:08.142Z,29.60
2023-01-29T05:42:34.597Z,28.10
2023-01-29T05:45:01.063Z,27.70
2023-01-29T05:47:27.581Z,33.80
2023-01-29T05:49:54.076Z,34.70
2023-01-29T05:52:20.571Z,37.90
2023-01-29T05:54:47.823Z,40.00
2023-01-29T05:57:15.012Z,33.30
2023-01-29T05:59:41.780Z,40.30
2023-01-29T06:02:08.865Z,34.30
2023-01-29T06:04:35.474Z,37.40
2023-01-29T06:07:02.016Z,39.70
2023-01-29T06:09:28.507Z,43.90
2023-01-29T06:11:55.162Z,36.60
2023-01-29T06:14:22.181Z,25.80
2023-01-29T06:16:48.791Z,21.30
2023-01-29T06:19:15.371Z,23.30
2023-01-29T06:21:41.883Z,19.80
2023-01-29T06:24:09.235Z,20.70
2023-01-29T06:26:35.792Z,23.90
2023-01-29T06:29:02.253Z,24.10
2023-01-29T06:31:38.554Z,25.80
2023-01-29T06:34:09.457Z,25.60
2023-01-29T06:36:36.408Z,28.20
2023-01-29T06:39:03.843Z,26.40
2023-01-29T06:41:30.700Z,28.80
2023-01-29T06:43:57.332Z,35.20
2023-01-29T06:46:24.054Z,44.30
2023-01-29T06:48:50.727Z,60.70
2023-01-29T06:51:17.621Z,60.80
2023-01-29T06:53:46.202Z,46.10
2023-01-29T06:56:13.292Z,42.20
2023-01-29T06:58:39.955Z,38.00
2023-01-29T07:01:09.705Z,41.80
2023-01-29T07:03:36.636Z,38.90
2023-01-29T07:06:03.575Z,39.40
2023-01-29T07:08:30.253Z,35.20
2023-01-29T07:11:00.870Z,54.20
2023-01-29T07:13:27.578Z,145.30
2023-01-29T07:15:54.134Z,44.40
2023-01-29T07:18:20.626Z,33.40
2023-01-29T07:20:47.431Z,33.40
2023-01-29T07:23:14.993Z,33.50
2023-01-29T07:25:41.819Z,30.70
2023-01-29T07:28:08.305Z,32.50
2023-01-29T07:30:36.118Z,32.80
2023-01-29T07:33:07.604Z,29.20
2023-01-29T07:38:05.012Z,31.30
2023-01-29T07:40:31.510Z,33.60
2023-01-29T07:43:02.616Z,31.70
2023-01-29T07:45:30.152Z,29.90
2023-01-29T07:47:57.389Z,29.90
2023-01-29T07:50:25.419Z,25.70
2023-01-29T07:52:52.102Z,32.30
2023-01-29T07:55:18.528Z,29.00
2023-01-29T07:57:45.135Z,30.00
2023-01-29T08:00:12.966Z,28.50
2023-01-29T08:02:39.921Z,29.20
2023-01-29T08:05:07.258Z,32.30
2023-01-29T08:07:33.931Z,34.50
2023-01-29T08:10:00.414Z,32.60
2023-01-29T08:12:26.938Z,24.80
2023-01-29T08:14:53.745Z,25.50
2023-01-29T08:17:20.205Z,22.70
2023-01-29T08:19:46.759Z,28.30
2023-01-29T08:22:13.202Z,23.80
2023-01-29T08:24:53.362Z,26.40
2023-01-29T08:27:26.117Z,31.50
2023-01-29T08:29:52.562Z,31.10
2023-01-29T08:32:18.985Z,28.60
2023-01-29T08:34:45.586Z,26.20
2023-01-29T08:37:12.091Z,27.80
2023-01-29T08:39:38.730Z,23.20
2023-01-29T08:42:05.268Z,23.90
2023-01-29T08:44:31.693Z,23.20
2023-01-29T08:46:58.151Z,24.60
2023-01-29T08:49:25.109Z,21.80
2023-01-29T08:51:51.599Z,23.80
2023-01-29T08:54:18.259Z,24.00
2023-01-29T08:56:44.813Z,26.50
2023-01-29T08:59:11.343Z,22.80
2023-01-29T09:01:37.906Z,28.50
2023-01-29T09:04:04.642Z,30.30
2023-01-29T09:06:31.163Z,21.90
2023-01-29T09:08:57.571Z,26.50
2023-01-29T09:11:24.302Z,31.20
2023-01-29T09:13:50.801Z,24.70
2023-01-29T09:16:17.401Z,23.60
2023-01-29T09:18:43.924Z,29.30
2023-01-29T09:21:11.326Z,20.20
2023-01-29T09:23:38.097Z,23.30
2023-01-29T09:26:04.697Z,20.40
2023-01-29T09:28:31.177Z,18.20
2023-01-29T09:31:01.837Z,14.60
2023-01-29T09:33:28.681Z,13.90
2023-01-29T09:35:55.192Z,16.90
2023-01-29T09:38:21.843Z,14.60
2023-01-29T09:41:00.525Z,19.70
2023-01-29T09:44:02.101Z,15.40
2023-01-29T09:46:42.290Z,17.90
2023-01-29T09:49:23.948Z,14.10
2023-01-29T09:54:29.843Z,12.40
2023-01-29T09:56:58.000Z,17.90
2023-01-29T09:59:30.096Z,18.10
2023-01-29T10:02:09.346Z,14.90
2023-01-29T10:04:54.598Z,13.10
2023-01-29T10:07:52.605Z,18.00
2023-01-29T10:10:26.116Z,19.10
2023-01-29T10:13:20.517Z,16.30
2023-01-29T10:15:58.930Z,16.00
2023-01-29T10:19:02.748Z,19.60
2023-01-29T10:21:57.956Z,18.10
2023-01-29T10:24:41.729Z,18.60
2023-01-29T10:27:16.769Z,19.30
2023-01-29T10:29:45.439Z,17.50
2023-01-29T10:32:16.429Z,18.80
2023-01-29T10:34:49.945Z,19.80
2023-01-29T10:37:20.632Z,18.70
2023-01-29T10:39:47.422Z,18.80
2023-01-29T10:42:29.028Z,18.60
2023-01-29T10:47:40.459Z,14.70
2023-01-29T10:50:28.479Z,16.10
2023-01-29T10:53:24.636Z,14.70
2023-01-29T10:56:23.097Z,15.70
2023-01-29T10:59:29.182Z,16.40
2023-01-29T11:01:59.889Z,25.70
2023-01-29T11:04:31.970Z,22.20
2023-01-29T11:06:59.962Z,17.20
2023-01-29T11:12:06.819Z,12.30
2023-01-29T11:14:33.322Z,19.20
2023-01-29T11:17:00.095Z,16.50
2023-01-29T11:19:44.462Z,15.00
2023-01-29T11:22:20.229Z,16.80
2023-01-29T11:25:07.616Z,13.00
2023-01-29T11:27:43.873Z,15.30
2023-01-29T11:30:41.525Z,12.40
2023-01-29T11:33:20.185Z,11.90
2023-01-29T11:35:46.912Z,9.50
2023-01-29T11:38:16.525Z,14.20
2023-01-29T11:40:44.212Z,9.90
2023-01-29T11:43:18.294Z,12.00
2023-01-29T11:45:45.689Z,11.60
2023-01-29T11:48:21.403Z,14.70
2023-01-29T11:50:56.766Z,13.40
2023-01-29T11:53:45.231Z,9.50
2023-01-29T11:56:28.786Z,9.40
2023-01-29T11:58:58.120Z,15.00
2023-01-29T12:01:37.385Z,11.30
2023-01-29T12:04:20.245Z,10.40
2023-01-29T12:06:49.718Z,12.50
2023-01-29T12:09:19.394Z,9.70
2023-01-29T12:11:45.896Z,9.80
2023-01-29T12:14:28.736Z,9.50
2023-01-29T12:17:31.048Z,11.60
2023-01-29T12:20:04.622Z,11.80
2023-01-29T12:22:47.848Z,13.10
2023-01-29T12:25:22.781Z,11.10
2023-01-29T12:28:14.819Z,8.70
2023-01-29T12:33:43.997Z,11.30
2023-01-29T12:36:19.504Z,13.10
2023-01-29T12:38:45.995Z,12.10
2023-01-29T12:41:37.761Z,9.90
2023-01-29T12:44:11.825Z,9.90
2023-01-29T12:46:44.425Z,10.30
2023-01-29T12:49:16.443Z,15.60
2023-01-29T12:51:51.070Z,11.20
2023-01-29T12:54:34.495Z,11.80
2023-01-29T12:57:04.410Z,13.10
2023-01-29T12:59:47.520Z,13.30
2023-01-29T13:02:40.437Z,10.40
2023-01-29T13:05:16.139Z,10.90
2023-01-29T13:07:52.335Z,12.60
2023-01-29T13:10:29.320Z,13.50
2023-01-29T13:13:05.680Z,12.70
2023-01-29T13:15:39.179Z,13.10
2023-01-29T13:18:30.302Z,13.80
2023-01-29T13:20:57.309Z,12.70
2023-01-29T13:23:41.905Z,14.20
2023-01-29T13:26:09.005Z,14.30
2023-01-29T13:28:36.420Z,15.60
2023-01-29T13:31:31.568Z,20.10
2023-01-29T13:34:13.307Z,16.50
2023-01-29T13:39:35.645Z,12.20
2023-01-29T13:42:14.795Z,20.70
2023-01-29T13:44:41.677Z,13.70
2023-01-29T13:47:11.472Z,15.40
2023-01-29T13:49:53.295Z,13.30
2023-01-29T13:52:37.269Z,15.70
2023-01-29T13:55:25.980Z,15.10
2023-01-29T13:57:57.063Z,13.90
2023-01-29T14:00:23.495Z,14.70
2023-01-29T14:02:55.945Z,18.30
2023-01-29T14:05:31.595Z,18.50
2023-01-29T14:08:00.092Z,26.80
2023-01-29T14:10:29.383Z,34.30
2023-01-29T14:13:05.088Z,20.40
2023-01-29T14:15:36.257Z,23.00
2023-01-29T14:18:05.115Z,26.90
2023-01-29T14:20:48.965Z,14.60
2023-01-29T14:23:51.403Z,16.60
2023-01-29T14:26:30.053Z,18.80
2023-01-29T14:29:21.656Z,15.90
2023-01-29T14:32:23.573Z,18.90
2023-01-29T14:35:01.703Z,22.10
2023-01-29T14:37:35.894Z,19.00
2023-01-29T14:40:11.666Z,23.10
2023-01-29T14:43:01.347Z,21.80
2023-01-29T14:45:30.680Z,21.00
2023-01-29T14:48:11.653Z,23.60
2023-01-29T14:50:42.593Z,22.60
2023-01-29T14:53:22.940Z,20.20
2023-01-29T14:56:01.360Z,25.10
2023-01-29T14:58:38.766Z,22.40
2023-01-29T15:01:14.969Z,30.30
2023-01-29T15:03:51.401Z,34.20
2023-01-29T15:06:33.616Z,29.00
2023-01-29T15:09:18.261Z,32.80
2023-01-29T15:12:13.779Z,31.60
2023-01-29T15:15:18.264Z,34.60
2023-01-29T15:18:05.641Z,33.90
2023-01-29T15:20:36.556Z,36.50
2023-01-29T15:23:05.276Z,33.00
2023-01-29T15:25:37.497Z,32.00
2023-01-29T15:28:05.455Z,31.90
2023-01-29T15:30:34.287Z,35.90
2023-01-29T15:33:02.702Z,39.70
2023-01-29T15:35:35.500Z,39.10
2023-01-29T15:38:21.403Z,39.90
2023-01-29T15:41:02.637Z,43.50
2023-01-29T15:43:31.798Z,53.40
2023-01-29T15:46:01.601Z,55.40
2023-01-29T15:48:36.234Z,46.20
2023-01-29T15:51:07.189Z,37.90
2023-01-29T15:53:40.905Z,45.10
2023-01-29T15:56:12.358Z,45.80
2023-01-29T16:01:06.745Z,56.60
2023-01-29T16:03:34.791Z,55.80
2023-01-29T16:06:02.381Z,58.30
2023-01-29T16:08:29.413Z,61.00
2023-01-29T16:10:59.356Z,69.80
2023-01-29T16:13:29.824Z,56.60
2023-01-29T16:16:01.592Z,68.70
2023-01-29T16:18:36.303Z,75.10
2023-01-29T16:21:15.727Z,86.00
2023-01-29T16:23:45.762Z,99.60
2023-01-29T16:26:16.813Z,89.30
2023-01-29T16:28:45.798Z,80.20
2023-01-29T16:31:14.258Z,83.20
2023-01-29T16:33:43.319Z,79.80
2023-01-29T16:36:22.515Z,66.80
2023-01-29T16:38:56.949Z,54.30
2023-01-29T16:41:23.361Z,59.50
2023-01-29T16:44:03.360Z,55.00
2023-01-29T16:46:37.417Z,52.80
2023-01-29T16:49:26.148Z,47.50
2023-01-29T16:51:53.797Z,54.50
2023-01-29T16:54:25.589Z,56.50
2023-01-29T16:56:55.798Z,54.50
2023-01-29T16:59:31.224Z,59.10
2023-01-29T17:01:58.782Z,157.60
2023-01-29T17:04:25.284Z,110.20
2023-01-29T17:07:01.189Z,177.70
2023-01-29T17:09:32.107Z,98.40
2023-01-29T17:12:01.886Z,74.10
2023-01-29T17:14:31.352Z,74.90
2023-01-29T17:17:06.530Z,77.50
2023-01-29T17:19:33.687Z,62.70
2023-01-29T17:22:00.307Z,61.90
2023-01-29T17:24:26.936Z,58.20
2023-01-29T17:26:54.037Z,62.20
2023-01-29T17:29:31.198Z,58.60
2023-01-29T17:31:58.071Z,64.60
2023-01-29T17:34:24.663Z,64.80
2023-01-29T17:36:51.521Z,63.60
2023-01-29T17:39:24.458Z,78.40
2023-01-29T17:41:56.320Z,73.40
2023-01-29T17:44:23.207Z,76.60
2023-01-29T17:46:49.988Z,67.70
2023-01-29T17:49:25.607Z,74.90
2023-01-29T17:51:53.587Z,83.70
2023-01-29T17:54:20.715Z,103.30
2023-01-29T17:56:48.202Z,96.00
2023-01-29T17:59:17.008Z,93.30
2023-01-29T18:01:43.943Z,97.90
2023-01-29T18:04:11.639Z,148.60
2023-01-29T18:06:39.947Z,251.80
2023-01-29T18:09:06.841Z,150.70
2023-01-29T18:11:34.350Z,114.00
2023-01-29T18:14:11.359Z,89.30
2023-01-29T18:16:42.344Z,108.60
2023-01-29T18:19:24.118Z,112.60
2023-01-29T18:24:17.202Z,119.30
2023-01-29T18:26:43.728Z,162.30
2023-01-29T18:29:10.226Z,147.90
2023-01-29T18:31:37.293Z,102.40
2023-01-29T18:34:04.295Z,94.50
2023-01-29T18:36:31.060Z,102.40
2023-01-29T18:38:58.295Z,111.50
2023-01-29T18:41:24.827Z,124.90
2023-01-29T18:43:52.087Z,122.20
2023-01-29T18:46:19.870Z,112.50
2023-01-29T18:48:46.622Z,105.10
2023-01-29T18:51:13.151Z,105.20
2023-01-29T18:53:39.699Z,104.40
2023-01-29T18:56:07.637Z,115.60
2023-01-29T18:58:36.623Z,115.50
2023-01-29T19:01:10.424Z,116.80
2023-01-29T19:03:38.386Z,128.60
2023-01-29T19:06:07.154Z,116.00
2023-01-29T19:08:34.309Z,114.80
2023-01-29T19:11:01.244Z,114.00
2023-01-29T19:13:31.748Z,119.50
2023-01-29T19:15:58.848Z,101.70
2023-01-29T19:18:25.457Z,103.60
2023-01-29T19:20:52.716Z,118.10
2023-01-29T19:23:19.579Z,110.70
2023-01-29T19:25:46.427Z,124.30
2023-01-29T19:28:13.361Z,152.10
2023-01-29T19:30:40.866Z,138.40
2023-01-29T19:33:07.775Z,102.00
2023-01-29T19:35:34.619Z,119.30
2023-01-29T19:38:01.469Z,103.80
2023-01-29T19:40:28.310Z,94.00
2023-01-29T19:42:55.470Z,87.30
2023-01-29T19:45:37.328Z,96.90
2023-01-29T19:48:09.235Z,95.50
2023-01-29T19:50:35.648Z,87.50
2023-01-29T19:53:02.201Z,60.50
2023-01-29T19:55:28.647Z,64.20
2023-01-29T19:57:55.690Z,68.20
2023-01-29T20:00:22.448Z,66.00
2023-01-29T20:02:49.176Z,70.10
2023-01-29T20:05:16.204Z,66.00
2023-01-29T20:07:43.178Z,68.40
2023-01-29T20:10:11.450Z,71.30
2023-01-29T20:12:38.204Z,63.70
2023-01-29T20:15:06.196Z,62.30
2023-01-29T20:17:33.032Z,61.70
2023-01-29T20:19:59.765Z,69.40
2023-01-29T20:22:26.819Z,64.30
2023-01-29T20:24:54.202Z,61.40
2023-01-29T20:27:20.673Z,66.50
2023-01-29T20:29:47.151Z,66.40
2023-01-29T20:32:13.956Z,71.30
2023-01-29T20:34:41.470Z,68.70
2023-01-29T20:37:08.212Z,70.80
2023-01-29T20:39:34.840Z,71.80
2023-01-29T20:42:01.701Z,62.40
2023-01-29T20:44:28.450Z,58.00
2023-01-29T20:46:55.179Z,57.50
2023-01-29T20:49:21.682Z,61.50
2023-01-29T20:51:48.163Z,52.60
2023-01-29T20:54:14.904Z,51.10
2023-01-29T20:56:44.116Z,46.00
2023-01-29T20:59:14.079Z,56.70
2023-01-29T21:01:41.539Z,61.20
2023-01-29T21:04:08.034Z,56.00
2023-01-29T21:06:34.666Z,56.90
2023-01-29T21:09:01.315Z,72.00
2023-01-29T21:11:27.945Z,64.30
2023-01-29T21:13:54.506Z,77.00
2023-01-29T21:16:21.172Z,69.80
2023-01-29T21:18:47.701Z,63.10
2023-01-29T21:21:14.315Z,59.60
2023-01-29T21:23:40.861Z,58.10
2023-01-29T21:26:07.338Z,57.80
2023-01-29T21:28:34.865Z,62.80
2023-01-29T21:31:06.832Z,61.70
2023-01-29T21:33:33.475Z,56.90
2023-01-29T21:36:01.006Z,63.10
2023-01-29T21:38:27.713Z,58.40
2023-01-29T21:40:59.935Z,57.60
2023-01-29T21:43:26.612Z,61.80
2023-01-29T21:46:01.251Z,60.10
2023-01-29T21:48:27.779Z,61.50
2023-01-29T21:50:54.208Z,62.00
2023-01-29T21:53:20.747Z,266.70
2023-01-29T21:55:47.723Z,150.00
2023-01-29T21:58:14.726Z,128.80
2023-01-29T22:00:41.703Z,68.60
2023-01-29T22:03:08.275Z,73.90
2023-01-29T22:05:34.791Z,71.40
2023-01-29T22:08:01.633Z,76.00
2023-01-29T22:10:28.476Z,70.20
2023-01-29T22:12:54.898Z,73.20
2023-01-29T22:15:23.586Z,65.50
2023-01-29T22:17:51.061Z,70.80
2023-01-29T22:20:18.342Z,77.80
2023-01-29T22:22:45.061Z,71.60
2023-01-29T22:25:11.553Z,79.80
2023-01-29T22:27:37.997Z,82.40
2023-01-29T22:30:05.865Z,89.50
2023-01-29T22:32:32.819Z,78.80
2023-01-29T22:34:59.404Z,75.20
2023-01-29T22:37:25.894Z,71.70
2023-01-29T22:39:52.380Z,79.90
2023-01-29T22:42:19.653Z,76.90
2023-01-29T22:44:46.097Z,72.80
2023-01-29T22:47:12.543Z,70.00
2023-01-29T22:49:39.059Z,77.50
2023-01-29T22:52:05.579Z,78.80
2023-01-29T22:54:32.031Z,79.60
2023-01-29T22:56:58.516Z,92.10
2023-01-29T22:59:25.218Z,85.40
2023-01-29T23:01:51.841Z,84.50
2023-01-29T23:04:18.337Z,100.00
2023-01-29T23:06:44.854Z,107.60
2023-01-29T23:09:11.419Z,113.80
2023-01-29T23:11:37.848Z,122.70
2023-01-29T23:14:04.582Z,122.60
2023-01-29T23:16:31.274Z,120.30
2023-01-29T23:18:57.798Z,126.20
2023-01-29T23:21:25.767Z,137.70
2023-01-29T23:23:52.603Z,141.20
2023-01-29T23:26:19.112Z,140.20
2023-01-29T23:28:46.117Z,135.70
2023-01-29T23:31:13.549Z,127.00
2023-01-29T23:33:40.443Z,130.70
2023-01-29T23:36:07.876Z,138.10
2023-01-29T23:38:34.363Z,131.10
2023-01-29T23:41:01.008Z,131.30
2023-01-29T23:43:30.468Z,120.60
2023-01-29T23:45:57.421Z,115.20
2023-01-29T23:48:24.822Z,116.20
2023-01-29T23:50:51.879Z,123.20
2023-01-29T23:53:18.619Z,120.50
2023-01-29T23:55:56.143Z,126.80
2023-01-29T23:58:23.063Z,130.70
